الصفحة الرئيسية
صور الأقمار الصناعية توقعات الطقس لمدة 15 يوممناخالتوقعات البحرية إعصار برق مطارأسئلة وأجوبة النشرة الإخبارية حول
طقس : أوروبا أفريقيا أمريكا الشمالية أمريكا الجنوبية آسيا أستراليا-أوقيانوسيا آخرون
لغات جهة اتصال

سكاكا, السعودية

دائرة عرض: 29-47N, خط طول: 040-06E, ارتفاع: 689 m


METAR: OESK 250600Z 12017KT CAVOK 29/01 Q1013 NOSIG
short-TAF: عفا عليها الزمن (13459 ساعات)
long-TAF: OESK 241030Z 2412/2518 14013KT 7000 FEW040

زمن: 09:10 (06:10 UTC)

مراقبة الطقس الحالي

تاريخ و وقت الإصدار 10 دقيقة قبل الساعة 06:00 UTC  
ريح 17 kt من الشرق/الجنوب
درجة الحرارة 29°C
الرطوبة 16%
ضغط 1013 hPa
الرؤية 10 km أو أكثر
الغيوم لا تقل 1500 م وليس السحاب الأسود

تغيير وحدة

توقعات

تاريخ و وقت الإصدار 19 ساعات و 13 دقيقة قبل الساعة 10:57 UTC  
صالحة من التوقعات 24 في 12 بالتوقيت العالمي إلى 25 في 18 بالتوقيت العالمي
ريح 13 kt من الجنوب
الرؤية 7000 m
غيوم متفرقة على ارتفاع 4000 ft
المعلومات الواردة في هذا الموقع يخضع إخلاء
طقس : أوروبا أفريقيا أمريكا الشمالية أمريكا الجنوبية آسيا أستراليا-أوقيانوسيا آخرون
صور الأقمار الصناعية توقعات الطقس لمدة 15 يوممناخالتوقعات البحرية إعصار برق مطارأسئلة وأجوبة لغات جهة اتصال النشرة الإخبارية حول